createdAt,value
2016-07-27T00:00:25.467Z,-79
2016-07-27T00:01:25.595Z,-80
2016-07-27T00:02:25.469Z,-80
2016-07-27T00:03:25.761Z,-79
2016-07-27T00:04:25.764Z,-80
2016-07-27T00:05:25.745Z,-80
2016-07-27T00:06:25.507Z,-79
2016-07-27T00:07:25.754Z,-80
2016-07-27T00:08:25.910Z,-79
2016-07-27T00:09:25.903Z,-80
2016-07-27T00:10:25.898Z,-80
2016-07-27T00:11:25.915Z,-79
2016-07-27T00:12:25.480Z,-80
2016-07-27T00:13:25.620Z,-80
2016-07-27T00:14:25.628Z,-79
2016-07-27T00:15:25.649Z,-80
2016-07-27T00:16:25.641Z,-80
2016-07-27T00:17:25.661Z,-79
2016-07-27T00:18:25.651Z,-79
2016-07-27T00:19:25.656Z,-80
2016-07-27T00:20:25.810Z,-80
2016-07-27T00:22:25.949Z,-80
2016-07-27T00:23:25.788Z,-80
2016-07-27T00:24:25.666Z,-79
2016-07-27T00:25:25.825Z,-80
2016-07-27T00:26:25.846Z,-80
2016-07-27T00:27:25.984Z,-80
2016-07-27T00:28:25.822Z,-80
2016-07-27T00:29:25.558Z,-80
2016-07-27T00:30:25.678Z,-80
2016-07-27T00:31:25.715Z,-79
2016-07-27T00:32:25.700Z,-79
2016-07-27T00:33:25.956Z,-79
2016-07-27T00:34:25.563Z,-79
2016-07-27T00:35:25.544Z,-79
2016-07-27T00:37:25.553Z,-79
2016-07-27T00:38:25.706Z,-80
2016-07-27T00:39:25.882Z,-79
2016-07-27T00:40:25.720Z,-80
2016-07-27T00:41:25.871Z,-79
2016-07-27T00:42:25.715Z,-79
2016-07-27T00:43:25.739Z,-79
2016-07-27T00:44:25.883Z,-79
2016-07-27T00:45:25.739Z,-79
2016-07-27T00:46:25.841Z,-79
2016-07-27T00:47:25.862Z,-80
2016-07-27T00:48:26.006Z,-80
2016-07-27T00:49:25.901Z,-79
2016-07-27T00:50:25.935Z,-79
2016-07-27T00:52:25.744Z,-80
2016-07-27T00:53:26.029Z,-79
2016-07-27T00:54:25.767Z,-79
2016-07-27T00:55:25.639Z,-79
2016-07-27T00:56:26.093Z,-80
2016-07-27T00:57:25.774Z,-80
2016-07-27T00:58:25.790Z,-80
2016-07-27T00:59:25.763Z,-80
2016-07-27T01:00:25.775Z,-79
2016-07-27T01:01:25.760Z,-80
2016-07-27T01:02:25.685Z,-80
2016-07-27T01:03:25.768Z,-79
2016-07-27T01:04:26.062Z,-80
2016-07-27T01:05:25.903Z,-80
2016-07-27T01:07:25.799Z,-80
2016-07-27T01:08:25.806Z,-79
2016-07-27T01:09:26.079Z,-79
2016-07-27T01:10:25.937Z,-79
2016-07-27T01:11:25.649Z,-80
2016-07-27T01:12:26.085Z,-79
2016-07-27T01:13:26.001Z,-80
2016-07-27T01:14:26.012Z,-80
2016-07-27T01:15:25.954Z,-79
2016-07-27T01:16:25.974Z,-79
2016-07-27T01:17:25.843Z,-80
2016-07-27T01:18:25.840Z,-80
2016-07-27T01:19:26.149Z,-79
2016-07-27T01:20:25.986Z,-79
2016-07-27T01:22:25.848Z,-79
2016-07-27T01:23:25.883Z,-80
2016-07-27T01:24:26.036Z,-79
2016-07-27T01:25:25.838Z,-80
2016-07-27T01:26:26.035Z,-79
2016-07-27T01:27:26.109Z,-80
2016-07-27T01:28:25.979Z,-80
2016-07-27T01:29:26.001Z,-80
2016-07-27T01:30:25.840Z,-80
2016-07-27T01:31:25.882Z,-80
2016-07-27T01:32:25.715Z,-79
2016-07-27T01:33:26.022Z,-80
2016-07-27T01:34:26.145Z,-80
2016-07-27T01:35:25.872Z,-80
2016-07-27T01:37:25.720Z,-79
2016-07-27T01:38:25.740Z,-80
2016-07-27T01:39:25.892Z,-80
2016-07-27T01:40:25.881Z,-80
2016-07-27T01:41:25.739Z,-80
2016-07-27T01:42:26.030Z,-79
2016-07-27T01:43:25.874Z,-80
2016-07-27T01:44:25.880Z,-79
2016-07-27T01:45:25.885Z,-80
2016-07-27T01:46:26.109Z,-80
2016-07-27T01:47:25.910Z,-80
2016-07-27T01:48:26.077Z,-79
2016-07-27T01:49:26.175Z,-80
2016-07-27T01:50:25.772Z,-79
2016-07-27T01:51:26.085Z,-80
2016-07-27T01:52:26.051Z,-79
2016-07-27T01:53:25.929Z,-80
2016-07-27T01:54:26.087Z,-79
2016-07-27T01:55:26.073Z,-80
2016-07-27T01:56:26.143Z,-80
2016-07-27T01:57:26.065Z,-80
2016-07-27T01:58:26.089Z,-79
2016-07-27T01:59:26.057Z,-80
2016-07-27T02:00:26.212Z,-79
2016-07-27T02:01:25.947Z,-80
2016-07-27T02:02:25.934Z,-79
2016-07-27T02:03:26.076Z,-80
2016-07-27T02:04:25.941Z,-79
2016-07-27T02:05:25.935Z,-80
2016-07-27T02:06:25.927Z,-79
2016-07-27T02:07:26.082Z,-80
2016-07-27T02:08:26.089Z,-80
2016-07-27T02:09:26.246Z,-79
2016-07-27T02:10:25.966Z,-79
2016-07-27T02:11:25.973Z,-80
2016-07-27T02:12:25.963Z,-80
2016-07-27T02:13:26.115Z,-80
2016-07-27T02:14:25.975Z,-80
2016-07-27T02:15:25.970Z,-79
2016-07-27T02:16:25.974Z,-80
2016-07-27T02:17:25.977Z,-79
2016-07-27T02:18:26.128Z,-79
2016-07-27T02:19:25.974Z,-79
2016-07-27T02:20:26.152Z,-80
2016-07-27T02:21:26.329Z,-79
2016-07-27T02:22:26.197Z,-79
2016-07-27T02:23:26.156Z,-80
2016-07-27T02:24:26.299Z,-80
2016-07-27T02:25:26.016Z,-80
2016-07-27T02:26:26.005Z,-79
2016-07-27T02:27:26.141Z,-80
2016-07-27T02:28:26.296Z,-80
2016-07-27T02:29:25.854Z,-79
2016-07-27T02:30:25.995Z,-80
2016-07-27T02:31:26.106Z,-80
2016-07-27T02:32:25.883Z,-80
2016-07-27T02:33:26.034Z,-80
2016-07-27T02:34:26.316Z,-79
2016-07-27T02:35:26.331Z,-80
2016-07-27T02:36:26.319Z,-80
2016-07-27T02:37:26.170Z,-80
2016-07-27T02:38:25.899Z,-80
2016-07-27T02:39:26.183Z,-80
2016-07-27T02:40:26.041Z,-80
2016-07-27T02:41:26.226Z,-80
2016-07-27T02:42:25.893Z,-79
2016-07-27T02:43:26.053Z,-79
2016-07-27T02:44:25.914Z,-80
2016-07-27T02:45:26.336Z,-79
2016-07-27T02:46:26.334Z,-79
2016-07-27T02:47:26.192Z,-80
2016-07-27T02:48:25.926Z,-79
2016-07-27T02:49:26.094Z,-80
2016-07-27T02:50:26.353Z,-79
2016-07-27T02:51:26.132Z,-79
2016-07-27T02:52:26.223Z,-79
2016-07-27T02:53:26.242Z,-80
2016-07-27T02:54:26.395Z,-79
2016-07-27T02:55:25.937Z,-80
2016-07-27T02:56:26.248Z,-80
2016-07-27T02:57:26.106Z,-79
2016-07-27T02:58:26.244Z,-79
2016-07-27T02:59:26.101Z,-80
2016-07-27T03:00:26.118Z,-79
2016-07-27T03:01:26.101Z,-80
2016-07-27T03:02:26.246Z,-80
2016-07-27T03:03:26.246Z,-80
2016-07-27T03:04:25.971Z,-79
2016-07-27T03:05:26.118Z,-79
2016-07-27T03:06:26.132Z,-80
2016-07-27T03:07:26.124Z,-79
2016-07-27T03:08:26.185Z,-80
2016-07-27T03:09:26.127Z,-80
2016-07-27T03:10:26.279Z,-80
2016-07-27T03:11:26.433Z,-80
2016-07-27T03:12:26.120Z,-79
2016-07-27T03:13:26.127Z,-80
2016-07-27T03:14:26.266Z,-79
2016-07-27T03:15:26.329Z,-80
2016-07-27T03:16:26.277Z,-80
2016-07-27T03:17:26.286Z,-80
2016-07-27T03:18:26.303Z,-80
2016-07-27T03:19:26.458Z,-80
2016-07-27T03:20:26.309Z,-79
2016-07-27T03:21:26.080Z,-80
2016-07-27T03:22:26.326Z,-80
2016-07-27T03:23:26.331Z,-80
2016-07-27T03:24:26.171Z,-79
2016-07-27T03:25:26.334Z,-79
2016-07-27T03:26:26.443Z,-79
2016-07-27T03:27:26.347Z,-80
2016-07-27T03:28:26.317Z,-80
2016-07-27T03:29:26.204Z,-79
2016-07-27T03:30:26.335Z,-79
2016-07-27T03:31:26.364Z,-80
2016-07-27T03:32:26.474Z,-79
2016-07-27T03:33:26.341Z,-80
2016-07-27T03:34:26.358Z,-79
2016-07-27T03:35:26.502Z,-80
2016-07-27T03:36:26.229Z,-79
2016-07-27T03:37:26.359Z,-79
2016-07-27T03:38:26.400Z,-80
2016-07-27T03:39:26.351Z,-80
2016-07-27T03:40:26.237Z,-80
2016-07-27T03:41:26.256Z,-79
2016-07-27T03:42:26.079Z,-80
2016-07-27T03:43:26.246Z,-80
2016-07-27T03:44:26.382Z,-80
2016-07-27T03:45:26.228Z,-80
2016-07-27T03:46:26.235Z,-80
2016-07-27T03:47:26.372Z,-80
2016-07-27T03:48:26.283Z,-80
2016-07-27T03:49:26.422Z,-80
2016-07-27T03:50:26.277Z,-79
2016-07-27T03:51:26.436Z,-79
2016-07-27T03:52:26.537Z,-80
2016-07-27T03:53:26.383Z,-80
2016-07-27T03:54:26.261Z,-79
2016-07-27T03:55:26.271Z,-80
2016-07-27T03:56:26.547Z,-79
2016-07-27T03:57:26.451Z,-80
2016-07-27T03:58:26.540Z,-80
2016-07-27T03:59:26.464Z,-79
2016-07-27T04:00:26.288Z,-79
2016-07-27T04:01:26.549Z,-80
2016-07-27T04:02:26.171Z,-80
2016-07-27T04:03:26.416Z,-79
2016-07-27T04:04:26.430Z,-79
2016-07-27T04:05:26.281Z,-80
2016-07-27T04:06:26.429Z,-80
2016-07-27T04:07:26.279Z,-79
2016-07-27T04:08:26.453Z,-79
2016-07-27T04:09:26.206Z,-80
2016-07-27T04:10:26.449Z,-80
2016-07-27T04:11:26.297Z,-79
2016-07-27T04:12:26.588Z,-79
2016-07-27T04:13:26.610Z,-79
2016-07-27T04:14:26.169Z,-79
2016-07-27T04:15:26.615Z,-79
2016-07-27T04:16:26.317Z,-79
2016-07-27T04:17:26.326Z,-79
2016-07-27T04:18:26.457Z,-79
2016-07-27T04:19:26.462Z,-79
2016-07-27T04:20:26.368Z,-80
2016-07-27T04:21:26.476Z,-80
2016-07-27T04:22:26.340Z,-79
2016-07-27T04:23:26.492Z,-79
2016-07-27T04:24:26.470Z,-80
2016-07-27T04:25:26.349Z,-80
2016-07-27T04:26:26.361Z,-79
2016-07-27T04:27:26.350Z,-80
2016-07-27T04:28:26.488Z,-79
2016-07-27T04:29:26.365Z,-79
2016-07-27T04:30:26.499Z,-79
2016-07-27T04:31:26.381Z,-79
2016-07-27T04:32:26.491Z,-79
2016-07-27T04:33:26.638Z,-80
2016-07-27T04:34:26.500Z,-80
2016-07-27T04:35:26.508Z,-80
2016-07-27T04:36:26.421Z,-80
2016-07-27T04:37:26.514Z,-79
2016-07-27T04:38:26.712Z,-79
2016-07-27T04:39:26.553Z,-80
2016-07-27T04:40:26.402Z,-80
2016-07-27T04:41:26.387Z,-80
2016-07-27T04:42:26.230Z,-79
2016-07-27T04:43:26.541Z,-79
2016-07-27T04:44:26.380Z,-80
2016-07-27T04:45:26.410Z,-80
2016-07-27T04:46:26.553Z,-80
2016-07-27T04:47:26.587Z,-80
2016-07-27T04:48:26.419Z,-80
2016-07-27T04:49:26.409Z,-79
2016-07-27T04:50:26.589Z,-83
2016-07-27T04:51:26.583Z,-85
2016-07-27T04:52:26.372Z,-84
2016-07-27T04:53:26.473Z,-85
2016-07-27T04:54:26.315Z,-85
2016-07-27T04:55:26.301Z,-85
2016-07-27T04:56:26.588Z,-84
2016-07-27T04:57:26.593Z,-84
2016-07-27T04:58:26.449Z,-84
2016-07-27T04:59:26.617Z,-84
2016-07-27T05:00:26.537Z,-84
2016-07-27T05:01:26.620Z,-85
2016-07-27T05:02:26.460Z,-85
2016-07-27T05:03:26.753Z,-85
2016-07-27T05:04:26.608Z,-85
2016-07-27T05:05:26.787Z,-85
2016-07-27T05:06:26.522Z,-85
2016-07-27T05:07:26.420Z,-85
2016-07-27T05:08:26.780Z,-84
2016-07-27T05:09:26.640Z,-84
2016-07-27T05:10:26.784Z,-84
2016-07-27T05:11:26.651Z,-84
2016-07-27T05:12:26.487Z,-85
2016-07-27T05:13:26.786Z,-84
2016-07-27T05:14:26.491Z,-85
2016-07-27T05:15:26.645Z,-85
2016-07-27T05:16:26.662Z,-84
2016-07-27T05:17:26.641Z,-84
2016-07-27T05:18:26.508Z,-85
2016-07-27T05:19:26.661Z,-84
2016-07-27T05:20:26.660Z,-84
2016-07-27T05:21:26.791Z,-84
2016-07-27T05:22:26.288Z,-84
2016-07-27T05:23:26.807Z,-85
2016-07-27T05:24:26.663Z,-84
2016-07-27T05:25:26.527Z,-84
2016-07-27T05:26:26.830Z,-84
2016-07-27T05:27:26.694Z,-84
2016-07-27T05:28:26.540Z,-84
2016-07-27T05:29:26.530Z,-85
2016-07-27T05:30:26.395Z,-84
2016-07-27T05:31:26.556Z,-84
2016-07-27T05:32:27.250Z,-84
2016-07-27T05:33:26.696Z,-84
2016-07-27T05:34:26.872Z,-85
2016-07-27T05:35:26.581Z,-84
2016-07-27T05:36:26.718Z,-84
2016-07-27T05:38:26.834Z,-84
2016-07-27T05:39:26.850Z,-84
2016-07-27T05:40:26.613Z,-84
2016-07-27T05:41:26.738Z,-84
2016-07-27T05:42:26.724Z,-84
2016-07-27T05:43:26.736Z,-84
2016-07-27T05:44:26.757Z,-85
2016-07-27T05:45:26.886Z,-84
2016-07-27T05:46:26.438Z,-85
2016-07-27T05:47:26.733Z,-84
2016-07-27T05:48:26.520Z,-84
2016-07-27T05:49:26.596Z,-84
2016-07-27T05:50:26.777Z,-84
2016-07-27T05:51:26.473Z,-84
2016-07-27T05:53:26.908Z,-84
2016-07-27T05:54:26.634Z,-84
2016-07-27T05:55:26.783Z,-84
2016-07-27T05:56:26.631Z,-84
2016-07-27T05:57:26.768Z,-84
2016-07-27T05:58:26.796Z,-84
2016-07-27T05:59:26.804Z,-84
2016-07-27T06:00:26.652Z,-84
2016-07-27T06:01:26.670Z,-83
2016-07-27T06:02:26.779Z,-84
2016-07-27T06:03:26.775Z,-84
2016-07-27T06:04:26.659Z,-84
2016-07-27T06:05:26.659Z,-84
2016-07-27T06:06:26.962Z,-84
2016-07-27T06:08:26.849Z,-84
2016-07-27T06:09:26.685Z,-84
2016-07-27T06:10:27.005Z,-84
2016-07-27T06:11:26.524Z,-84
2016-07-27T06:12:26.967Z,-84
2016-07-27T06:13:26.662Z,-84
2016-07-27T06:14:26.698Z,-84
2016-07-27T06:15:26.671Z,-84
2016-07-27T06:16:26.577Z,-84
2016-07-27T06:17:27.003Z,-84
2016-07-27T06:18:26.697Z,-84
2016-07-27T06:19:26.699Z,-84
2016-07-27T06:20:26.842Z,-84
2016-07-27T06:21:26.553Z,-84
2016-07-27T06:23:26.860Z,-84
2016-07-27T06:24:26.993Z,-84
2016-07-27T06:25:26.910Z,-84
2016-07-27T06:26:27.065Z,-84
2016-07-27T06:27:26.722Z,-84
2016-07-27T06:28:26.713Z,-84
2016-07-27T06:29:26.600Z,-84
2016-07-27T06:30:26.867Z,-84
2016-07-27T06:31:27.039Z,-85
2016-07-27T06:32:26.720Z,-84
2016-07-27T06:33:26.745Z,-85
2016-07-27T06:34:26.743Z,-85
2016-07-27T06:35:26.897Z,-84
2016-07-27T06:36:26.908Z,-84
2016-07-27T06:38:26.921Z,-84
2016-07-27T06:39:26.758Z,-84
2016-07-27T06:40:26.884Z,-84
2016-07-27T06:41:26.877Z,-84
2016-07-27T06:42:26.787Z,-84
2016-07-27T06:43:26.915Z,-84
2016-07-27T06:44:26.754Z,-84
2016-07-27T06:45:26.780Z,-84
2016-07-27T06:46:26.639Z,-84
2016-07-27T06:47:27.207Z,-85
2016-07-27T06:48:26.770Z,-84
2016-07-27T06:49:26.793Z,-84
2016-07-27T06:50:26.711Z,-84
2016-07-27T06:51:26.819Z,-84
2016-07-27T06:53:26.803Z,-84
2016-07-27T06:54:26.891Z,-84
2016-07-27T06:55:27.086Z,-84
2016-07-27T06:56:26.945Z,-84
2016-07-27T06:57:26.815Z,-84
2016-07-27T06:58:26.845Z,-84
2016-07-27T06:59:26.850Z,-84
2016-07-27T07:00:27.413Z,-85
2016-07-27T07:01:26.857Z,-84
2016-07-27T07:02:27.179Z,-84
2016-07-27T07:03:27.099Z,-85
2016-07-27T07:04:26.684Z,-84
2016-07-27T07:05:26.876Z,-83
2016-07-27T07:06:26.822Z,-85
2016-07-27T07:08:26.999Z,-84
2016-07-27T07:09:26.863Z,-85
2016-07-27T07:10:26.960Z,-84
2016-07-27T07:11:26.907Z,-84
2016-07-27T07:12:27.188Z,-84
2016-07-27T07:13:27.073Z,-84
2016-07-27T07:14:26.886Z,-85
2016-07-27T07:15:26.946Z,-84
2016-07-27T07:16:27.064Z,-84
2016-07-27T07:17:26.855Z,-84
2016-07-27T07:18:27.048Z,-84
2016-07-27T07:19:27.031Z,-84
2016-07-27T07:20:28.075Z,-84
2016-07-27T07:21:26.856Z,-84
2016-07-27T07:22:28.812Z,-85
2016-07-27T07:23:27.082Z,-85
2016-07-27T07:24:26.736Z,-84
2016-07-27T07:25:26.881Z,-84
2016-07-27T07:26:26.908Z,-84
2016-07-27T07:27:27.065Z,-84
2016-07-27T07:28:27.195Z,-84
2016-07-27T07:29:27.043Z,-84
2016-07-27T07:30:26.912Z,-84
2016-07-27T07:31:26.791Z,-85
2016-07-27T07:32:26.968Z,-84
2016-07-27T07:33:27.079Z,-84
2016-07-27T07:34:27.017Z,-84
2016-07-27T07:35:27.217Z,-84
2016-07-27T07:36:27.218Z,-83
2016-07-27T07:38:27.218Z,-84
2016-07-27T07:39:27.106Z,-84
2016-07-27T07:40:27.102Z,-84
2016-07-27T07:41:27.058Z,-84
2016-07-27T07:42:27.115Z,-84
2016-07-27T07:43:27.129Z,-84
2016-07-27T07:44:26.984Z,-84
2016-07-27T07:45:26.923Z,-84
2016-07-27T07:46:26.969Z,-85
2016-07-27T07:47:32.843Z,-84
2016-07-27T07:48:38.656Z,-84
2016-07-27T07:49:28.876Z,-85
2016-07-27T07:50:30.232Z,-84
2016-07-27T07:51:43.047Z,-86
2016-07-27T07:52:32.164Z,-84
2016-07-27T07:53:27.958Z,-84
2016-07-27T07:54:32.371Z,-84
2016-07-27T07:55:27.118Z,-84
2016-07-27T07:56:31.714Z,-85
2016-07-27T07:57:28.723Z,-85
2016-07-27T07:58:36.683Z,-86
2016-07-27T07:59:28.078Z,-84
2016-07-27T08:00:27.198Z,-84
2016-07-27T08:01:27.018Z,-84
2016-07-27T08:02:29.283Z,-85
2016-07-27T08:03:29.753Z,-86
2016-07-27T08:04:31.776Z,-85
2016-07-27T08:05:30.708Z,-84
2016-07-27T08:06:29.619Z,-85
2016-07-27T08:08:30.468Z,-85
2016-07-27T08:09:30.251Z,-85
2016-07-27T08:10:34.101Z,-85
2016-07-27T08:11:36.053Z,-86
2016-07-27T08:12:29.843Z,-86
2016-07-27T08:13:33.734Z,-86
2016-07-27T08:14:44.110Z,-85
2016-07-27T08:15:46.219Z,-86
2016-07-27T08:16:39.336Z,-85
2016-07-27T08:17:36.454Z,-85
2016-07-27T08:18:35.304Z,-87
2016-07-27T08:19:32.688Z,-86
2016-07-27T08:20:49.015Z,-85
2016-07-27T08:21:40.045Z,-86
2016-07-27T08:22:38.326Z,-84
2016-07-27T08:23:39.199Z,-86
2016-07-27T08:24:30.855Z,-85
2016-07-27T08:25:37.698Z,-85
2016-07-27T08:26:45.924Z,-83
2016-07-27T08:27:42.179Z,-86
2016-07-27T08:28:34.221Z,-87
2016-07-27T08:29:37.837Z,-84
2016-07-27T08:30:37.593Z,-86
2016-07-27T08:31:31.004Z,-84
2016-07-27T08:32:42.773Z,-85
2016-07-27T08:33:32.137Z,-84
2016-07-27T08:34:36.921Z,-84
2016-07-27T08:35:46.078Z,-86
2016-07-27T08:36:40.491Z,-86
2016-07-27T08:37:29.396Z,-85
2016-07-27T08:38:45.521Z,-86
2016-07-27T08:39:38.709Z,-86
2016-07-27T08:40:37.705Z,-85
2016-07-27T08:41:43.001Z,-84
2016-07-27T08:42:36.430Z,-83
2016-07-27T08:43:42.792Z,-86
2016-07-27T08:44:42.660Z,-84
2016-07-27T08:45:46.740Z,-87
2016-07-27T08:46:41.683Z,-84
2016-07-27T08:47:45.114Z,-84
2016-07-27T08:48:32.920Z,-85
2016-07-27T08:49:34.781Z,-83
2016-07-27T08:50:38.540Z,-85
2016-07-27T08:51:42.098Z,-85
2016-07-27T08:53:27.170Z,-85
2016-07-27T08:54:27.175Z,-85
2016-07-27T08:55:29.666Z,-85
2016-07-27T08:56:31.462Z,-86
2016-07-27T08:57:28.251Z,-83
2016-07-27T08:58:35.742Z,-86
2016-07-27T08:59:27.158Z,-83
2016-07-27T09:00:30.600Z,-85
2016-07-27T09:01:27.162Z,-83
2016-07-27T09:02:27.437Z,-83
2016-07-27T09:03:32.135Z,-84
2016-07-27T09:04:33.997Z,-85
2016-07-27T09:05:31.351Z,-83
2016-07-27T09:06:44.981Z,-85
2016-07-27T09:07:48.205Z,-85
2016-07-27T09:08:33.746Z,-84
2016-07-27T09:09:34.019Z,-87
2016-07-27T09:10:37.100Z,-85
2016-07-27T09:11:32.558Z,-84
2016-07-27T09:12:27.074Z,-84
2016-07-27T09:13:27.248Z,-83
2016-07-27T09:14:28.290Z,-84
2016-07-27T09:15:27.364Z,-84
2016-07-27T09:16:27.266Z,-84
2016-07-27T09:17:27.253Z,-84
2016-07-27T09:18:27.396Z,-83
2016-07-27T09:19:27.357Z,-84
2016-07-27T09:20:27.236Z,-84
2016-07-27T09:21:27.099Z,-84
2016-07-27T09:22:27.361Z,-83
2016-07-27T09:23:27.376Z,-84
2016-07-27T09:24:27.261Z,-84
2016-07-27T09:25:27.957Z,-84
2016-07-27T09:26:27.398Z,-84
2016-07-27T09:27:27.414Z,-84
2016-07-27T09:28:27.398Z,-84
2016-07-27T09:29:27.619Z,-84
2016-07-27T09:30:27.392Z,-84
2016-07-27T09:31:27.251Z,-84
2016-07-27T09:32:27.288Z,-84
2016-07-27T09:33:27.320Z,-83
2016-07-27T09:34:27.292Z,-85
2016-07-27T09:35:27.629Z,-84
2016-07-27T09:36:27.200Z,-84
2016-07-27T09:37:27.593Z,-84
2016-07-27T09:38:27.361Z,-84
2016-07-27T09:39:27.429Z,-83
2016-07-27T09:40:28.054Z,-84
2016-07-27T09:41:27.336Z,-85
2016-07-27T09:42:27.420Z,-84
2016-07-27T09:43:27.280Z,-85
2016-07-27T09:44:27.435Z,-85
2016-07-27T09:45:27.449Z,-83
2016-07-27T09:46:27.215Z,-84
2016-07-27T09:47:27.592Z,-84
2016-07-27T09:48:27.223Z,-84
2016-07-27T09:49:27.212Z,-84
2016-07-27T09:50:27.363Z,-84
2016-07-27T09:51:27.363Z,-84
2016-07-27T09:52:27.493Z,-84
2016-07-27T09:53:27.352Z,-84
2016-07-27T09:54:27.749Z,-83
2016-07-27T09:55:27.457Z,-84
2016-07-27T09:56:27.226Z,-84
2016-07-27T09:57:27.437Z,-84
2016-07-27T09:58:28.007Z,-83
2016-07-27T09:59:27.671Z,-84
2016-07-27T10:00:27.404Z,-84
2016-07-27T10:01:27.420Z,-84
2016-07-27T10:02:27.575Z,-84
2016-07-27T10:03:27.817Z,-84
2016-07-27T10:04:27.486Z,-83
2016-07-27T10:05:27.432Z,-83
2016-07-27T10:06:27.467Z,-83
2016-07-27T10:07:27.359Z,-84
2016-07-27T10:08:27.624Z,-83
2016-07-27T10:09:27.381Z,-84
2016-07-27T10:10:27.530Z,-83
2016-07-27T10:11:27.701Z,-84
2016-07-27T10:12:27.559Z,-83
2016-07-27T10:13:27.385Z,-84
2016-07-27T10:14:27.624Z,-83
2016-07-27T10:15:27.565Z,-84
2016-07-27T10:16:28.058Z,-83
2016-07-27T10:17:28.444Z,-84
2016-07-27T10:18:27.545Z,-84
2016-07-27T10:19:27.426Z,-83
2016-07-27T10:20:27.642Z,-84
2016-07-27T10:21:27.578Z,-83
2016-07-27T10:22:27.573Z,-84
2016-07-27T10:23:27.423Z,-84
2016-07-27T10:24:27.646Z,-83
2016-07-27T10:25:27.545Z,-84
2016-07-27T10:26:27.475Z,-84
2016-07-27T10:27:27.746Z,-84
2016-07-27T10:28:27.752Z,-84
2016-07-27T10:29:27.575Z,-84
2016-07-27T10:30:27.319Z,-84
2016-07-27T10:31:27.737Z,-85
2016-07-27T10:32:27.631Z,-85
2016-07-27T10:33:27.585Z,-84
2016-07-27T10:34:27.657Z,-83
2016-07-27T10:35:28.049Z,-83
2016-07-27T10:36:27.624Z,-84
2016-07-27T10:37:28.187Z,-84
2016-07-27T10:38:27.642Z,-84
2016-07-27T10:39:27.676Z,-84
2016-07-27T10:40:27.762Z,-83
2016-07-27T10:41:28.324Z,-84
2016-07-27T10:42:27.550Z,-84
2016-07-27T10:43:27.743Z,-83
2016-07-27T10:44:27.687Z,-84
2016-07-27T10:45:27.529Z,-85
2016-07-27T10:46:27.661Z,-84
2016-07-27T10:47:27.528Z,-84
2016-07-27T10:48:27.604Z,-84
2016-07-27T10:49:27.666Z,-84
2016-07-27T10:50:27.822Z,-84
2016-07-27T10:51:27.375Z,-84
2016-07-27T10:52:27.821Z,-84
2016-07-27T10:53:27.851Z,-84
2016-07-27T10:54:27.859Z,-84
2016-07-27T10:55:27.695Z,-84
2016-07-27T10:56:27.510Z,-83
2016-07-27T10:57:27.781Z,-83
2016-07-27T10:58:27.704Z,-84
2016-07-27T10:59:27.526Z,-84
2016-07-27T11:00:27.555Z,-84
2016-07-27T11:01:27.845Z,-85
2016-07-27T11:02:28.482Z,-84
2016-07-27T11:03:27.694Z,-84
2016-07-27T11:04:27.706Z,-84
2016-07-27T11:05:27.602Z,-84
2016-07-27T11:06:27.662Z,-82
2016-07-27T11:07:27.644Z,-84
2016-07-27T11:08:27.342Z,-84
2016-07-27T11:09:27.835Z,-83
2016-07-27T11:10:28.394Z,-83
2016-07-27T11:11:27.679Z,-83
2016-07-27T11:12:27.585Z,-85
2016-07-27T11:13:27.662Z,-85
2016-07-27T11:14:27.648Z,-85
2016-07-27T11:15:28.433Z,-85
2016-07-27T11:16:27.706Z,-85
2016-07-27T11:17:27.756Z,-85
2016-07-27T11:18:27.586Z,-85
2016-07-27T11:19:27.757Z,-82
2016-07-27T11:20:27.583Z,-83
2016-07-27T11:21:27.879Z,-83
2016-07-27T11:22:27.781Z,-82
2016-07-27T11:24:27.740Z,-83
2016-07-27T11:25:27.933Z,-83
2016-07-27T11:26:27.819Z,-83
2016-07-27T11:27:27.746Z,-83
2016-07-27T11:28:27.626Z,-84
2016-07-27T11:29:27.744Z,-82
2016-07-27T11:30:27.787Z,-83
2016-07-27T11:31:27.818Z,-83
2016-07-27T11:32:27.552Z,-83
2016-07-27T11:33:27.807Z,-84
2016-07-27T11:34:27.935Z,-83
2016-07-27T11:35:27.784Z,-83
2016-07-27T11:36:27.817Z,-83
2016-07-27T11:37:27.759Z,-84
2016-07-27T11:39:27.620Z,-85
2016-07-27T11:40:27.786Z,-84
2016-07-27T11:41:27.958Z,-84
2016-07-27T11:42:27.767Z,-84
2016-07-27T11:43:27.822Z,-85
2016-07-27T11:44:28.073Z,-85
2016-07-27T11:45:27.517Z,-85
2016-07-27T11:46:27.864Z,-84
2016-07-27T11:47:27.866Z,-84
2016-07-27T11:48:27.707Z,-85
2016-07-27T11:49:27.713Z,-83
2016-07-27T11:50:27.976Z,-84
2016-07-27T11:51:27.566Z,-84
2016-07-27T11:52:28.149Z,-84
2016-07-27T11:54:27.668Z,-84
2016-07-27T11:55:27.577Z,-85
2016-07-27T11:56:28.313Z,-85
2016-07-27T11:57:28.010Z,-84
2016-07-27T11:58:27.649Z,-84
2016-07-27T11:59:28.294Z,-84
2016-07-27T12:00:27.880Z,-84
2016-07-27T12:01:27.727Z,-83
2016-07-27T12:02:27.996Z,-84
2016-07-27T12:03:27.618Z,-83
2016-07-27T12:04:28.057Z,-85
2016-07-27T12:05:51.932Z,-82
2016-07-27T12:06:28.657Z,-83
2016-07-27T12:07:27.859Z,-83
2016-07-27T12:09:28.086Z,-83
2016-07-27T12:10:27.808Z,-83
2016-07-27T12:11:27.776Z,-83
2016-07-27T12:12:27.957Z,-83
2016-07-27T12:13:27.865Z,-84
2016-07-27T12:14:27.770Z,-83
2016-07-27T12:15:28.066Z,-84
2016-07-27T12:16:27.859Z,-83
2016-07-27T12:17:27.874Z,-84
2016-07-27T12:18:28.073Z,-84
2016-07-27T12:19:27.957Z,-84
2016-07-27T12:20:27.877Z,-84
2016-07-27T12:21:27.819Z,-84
2016-07-27T12:22:27.753Z,-84
2016-07-27T12:24:28.116Z,-84
2016-07-27T12:25:27.864Z,-84
2016-07-27T12:26:27.807Z,-83
2016-07-27T12:27:27.817Z,-84
2016-07-27T12:28:28.070Z,-83
2016-07-27T12:29:27.988Z,-83
2016-07-27T12:30:27.826Z,-84
2016-07-27T12:31:28.581Z,-84
2016-07-27T12:32:28.005Z,-84
2016-07-27T12:33:27.667Z,-84
2016-07-27T12:34:28.023Z,-84
2016-07-27T12:35:27.646Z,-84
2016-07-27T12:36:27.965Z,-84
2016-07-27T12:37:27.829Z,-84
2016-07-27T12:39:28.642Z,-85
2016-07-27T12:40:28.044Z,-86
2016-07-27T12:41:27.956Z,-83
2016-07-27T12:42:27.893Z,-83
2016-07-27T12:43:27.858Z,-84
2016-07-27T12:44:27.885Z,-83
2016-07-27T12:45:27.858Z,-85
2016-07-27T12:46:27.845Z,-84
2016-07-27T12:47:27.866Z,-84
2016-07-27T12:48:27.823Z,-83
2016-07-27T12:49:27.829Z,-83
2016-07-27T12:50:27.760Z,-83
2016-07-27T12:51:29.875Z,-83
2016-07-27T12:52:28.058Z,-84
2016-07-27T12:54:27.744Z,-84
2016-07-27T12:55:27.869Z,-84
2016-07-27T12:56:27.944Z,-85
2016-07-27T12:57:28.041Z,-84
2016-07-27T12:58:27.990Z,-82
2016-07-27T12:59:28.002Z,-84
2016-07-27T13:00:27.926Z,-84
2016-07-27T13:01:28.050Z,-83
2016-07-27T13:02:28.085Z,-85
2016-07-27T13:03:28.227Z,-83
2016-07-27T13:04:27.954Z,-84
2016-07-27T13:05:27.953Z,-84
2016-07-27T13:06:27.949Z,-84
2016-07-27T13:07:28.045Z,-85
2016-07-27T13:09:27.908Z,-85
2016-07-27T13:10:28.052Z,-83
2016-07-27T13:11:27.808Z,-87
2016-07-27T13:12:27.921Z,-84
2016-07-27T13:13:27.910Z,-85
2016-07-27T13:14:27.969Z,-86
2016-07-27T13:15:27.975Z,-85
2016-07-27T13:16:27.988Z,-85
2016-07-27T13:17:28.131Z,-84
2016-07-27T13:18:28.329Z,-85
2016-07-27T13:19:28.297Z,-85
2016-07-27T13:20:28.269Z,-85
2016-07-27T13:21:28.157Z,-85
2016-07-27T13:22:27.776Z,-84
2016-07-27T13:24:27.796Z,-84
2016-07-27T13:25:27.959Z,-84
2016-07-27T13:26:28.150Z,-83
2016-07-27T13:27:28.069Z,-83
2016-07-27T13:28:28.120Z,-83
2016-07-27T13:29:27.980Z,-84
2016-07-27T13:30:27.967Z,-81
2016-07-27T13:31:28.174Z,-83
2016-07-27T13:32:28.339Z,-82
2016-07-27T13:33:28.238Z,-82
2016-07-27T13:34:28.022Z,-83
2016-07-27T13:35:27.997Z,-83
2016-07-27T13:36:28.153Z,-83
2016-07-27T13:37:28.127Z,-82
2016-07-27T13:39:28.207Z,-83
2016-07-27T13:40:27.844Z,-83
2016-07-27T13:41:28.116Z,-82
2016-07-27T13:42:27.985Z,-83
2016-07-27T13:43:27.978Z,-83
2016-07-27T13:44:28.039Z,-83
2016-07-27T13:45:28.216Z,-84
2016-07-27T13:46:28.138Z,-83
2016-07-27T13:47:28.332Z,-83
2016-07-27T13:48:27.851Z,-84
2016-07-27T13:49:28.158Z,-83
2016-07-27T13:50:28.148Z,-83
2016-07-27T13:51:28.006Z,-83
2016-07-27T13:52:28.258Z,-83
2016-07-27T13:54:28.107Z,-83
2016-07-27T13:55:28.221Z,-83
2016-07-27T13:56:28.048Z,-83
2016-07-27T13:57:28.011Z,-84
2016-07-27T13:58:28.176Z,-83
2016-07-27T13:59:28.199Z,-83
2016-07-27T14:00:28.337Z,-83
2016-07-27T14:01:28.227Z,-82
2016-07-27T14:02:28.025Z,-83
2016-07-27T14:03:28.219Z,-83
2016-07-27T14:04:28.050Z,-83
2016-07-27T14:05:28.052Z,-84
2016-07-27T14:06:28.054Z,-83
2016-07-27T14:07:28.114Z,-83
2016-07-27T14:08:28.386Z,-82
2016-07-27T14:09:27.914Z,-83
2016-07-27T14:10:28.203Z,-83
2016-07-27T14:11:28.629Z,-83
2016-07-27T14:12:28.336Z,-83
2016-07-27T14:13:28.362Z,-83